createdAt,value
2023-09-08T00:02:29.750Z,3.80
2023-09-08T00:04:56.910Z,4.00
2023-09-08T00:07:23.643Z,3.90
2023-09-08T00:09:50.660Z,4.05
2023-09-08T00:12:17.764Z,4.07
2023-09-08T00:14:44.772Z,3.55
2023-09-08T00:17:11.317Z,4.30
2023-09-08T00:19:39.344Z,4.25
2023-09-08T00:22:08.910Z,4.60
2023-09-08T00:24:36.303Z,3.78
2023-09-08T00:27:02.890Z,3.92
2023-09-08T00:29:30.206Z,3.83
2023-09-08T00:31:57.154Z,4.05
2023-09-08T00:34:24.308Z,3.75
2023-09-08T00:36:52.085Z,3.90
2023-09-08T00:39:18.919Z,4.32
2023-09-08T00:41:45.539Z,4.10
2023-09-08T00:44:12.431Z,3.92
2023-09-08T00:46:39.746Z,4.50
2023-09-08T00:49:07.547Z,4.35
2023-09-08T00:51:35.958Z,4.43
2023-09-08T00:54:03.219Z,4.38
2023-09-08T00:56:30.985Z,4.10
2023-09-08T00:58:57.941Z,3.92
2023-09-08T01:01:24.651Z,4.43
2023-09-08T01:03:51.993Z,4.28
2023-09-08T01:06:19.271Z,4.00
2023-09-08T01:08:46.738Z,4.10
2023-09-08T01:11:13.593Z,4.68
2023-09-08T01:13:40.379Z,4.60
2023-09-08T01:16:08.774Z,4.80
2023-09-08T01:18:36.155Z,4.20
2023-09-08T01:21:09.203Z,4.25
2023-09-08T01:24:19.349Z,4.45
2023-09-08T01:26:46.787Z,3.85
2023-09-08T01:29:14.309Z,4.68
2023-09-08T01:31:41.253Z,4.28
2023-09-08T01:34:09.979Z,4.38
2023-09-08T01:36:38.349Z,4.78
2023-09-08T01:39:05.011Z,4.22
2023-09-08T01:41:33.333Z,4.25
2023-09-08T01:44:01.070Z,4.28
2023-09-08T01:46:27.881Z,4.43
2023-09-08T01:48:54.463Z,4.47
2023-09-08T01:51:21.267Z,4.72
2023-09-08T01:53:47.812Z,4.47
2023-09-08T01:56:14.605Z,4.65
2023-09-08T01:58:41.189Z,5.40
2023-09-08T02:01:08.170Z,4.43
2023-09-08T02:03:35.602Z,5.10
2023-09-08T02:06:02.516Z,5.13
2023-09-08T02:08:29.240Z,4.93
2023-09-08T02:10:56.020Z,4.75
2023-09-08T02:13:23.114Z,4.40
2023-09-08T02:15:50.001Z,4.85
2023-09-08T02:18:16.623Z,4.93
2023-09-08T02:20:43.505Z,5.00
2023-09-08T02:23:10.104Z,4.70
2023-09-08T02:25:36.893Z,4.75
2023-09-08T02:28:04.039Z,4.88
2023-09-08T02:30:31.778Z,5.00
2023-09-08T02:32:59.893Z,5.28
2023-09-08T02:35:27.060Z,4.93
2023-09-08T02:37:55.712Z,5.07
2023-09-08T02:40:22.604Z,5.10
2023-09-08T02:42:49.986Z,4.60
2023-09-08T02:45:17.274Z,5.18
2023-09-08T02:47:43.937Z,5.07
2023-09-08T02:50:11.153Z,4.88
2023-09-08T02:52:37.965Z,5.00
2023-09-08T02:55:05.252Z,4.95
2023-09-08T02:57:31.765Z,4.18
2023-09-08T02:59:58.814Z,4.53
2023-09-08T03:02:27.271Z,4.97
2023-09-08T03:04:54.293Z,4.18
2023-09-08T03:07:21.271Z,6.15
2023-09-08T03:09:49.137Z,4.38
2023-09-08T03:12:15.993Z,4.20
2023-09-08T03:14:42.917Z,4.30
2023-09-08T03:17:09.596Z,4.50
2023-09-08T03:19:36.806Z,4.72
2023-09-08T03:22:03.802Z,4.63
2023-09-08T03:24:31.765Z,4.25
2023-09-08T03:26:59.137Z,5.00
2023-09-08T03:29:26.367Z,4.85
2023-09-08T03:31:53.063Z,4.80
2023-09-08T03:34:21.776Z,4.78
2023-09-08T03:36:50.223Z,4.60
2023-09-08T03:39:17.260Z,5.00
2023-09-08T03:41:43.774Z,5.05
2023-09-08T03:44:11.124Z,5.32
2023-09-08T03:46:38.298Z,5.40
2023-09-08T03:49:05.341Z,5.07
2023-09-08T03:51:31.935Z,5.65
2023-09-08T03:53:58.897Z,5.20
2023-09-08T03:56:25.484Z,4.60
2023-09-08T03:58:53.009Z,5.22
2023-09-08T04:01:19.825Z,5.65
2023-09-08T04:03:46.718Z,5.85
2023-09-08T04:06:13.325Z,4.95
2023-09-08T04:08:40.322Z,5.47
2023-09-08T04:11:06.829Z,5.20
2023-09-08T04:13:34.034Z,5.25
2023-09-08T04:16:00.821Z,4.90
2023-09-08T04:18:28.264Z,4.72
2023-09-08T04:20:55.112Z,4.97
2023-09-08T04:23:21.948Z,4.78
2023-09-08T04:25:48.465Z,4.68
2023-09-08T04:28:15.349Z,4.65
2023-09-08T04:30:41.990Z,4.95
2023-09-08T04:33:09.061Z,5.10
2023-09-08T04:35:35.680Z,4.80
2023-09-08T04:38:04.826Z,5.03
2023-09-08T04:40:32.194Z,5.18
2023-09-08T04:42:58.846Z,5.00
2023-09-08T04:45:25.667Z,5.15
2023-09-08T04:47:52.840Z,4.80
2023-09-08T04:50:20.732Z,4.65
2023-09-08T04:52:47.548Z,4.68
2023-09-08T04:55:15.350Z,4.65
2023-09-08T04:57:42.053Z,4.13
2023-09-08T05:00:09.473Z,4.63
2023-09-08T05:02:36.393Z,4.97
2023-09-08T05:05:05.046Z,4.93
2023-09-08T05:07:32.357Z,4.70
2023-09-08T05:09:59.425Z,5.10
2023-09-08T05:12:29.988Z,4.68
2023-09-08T05:15:01.338Z,5.60
2023-09-08T05:17:29.572Z,5.47
2023-09-08T05:19:56.630Z,4.85
2023-09-08T05:22:25.918Z,4.63
2023-09-08T05:24:53.019Z,5.18
2023-09-08T05:27:20.325Z,5.38
2023-09-08T05:29:47.046Z,4.68
2023-09-08T05:32:14.174Z,4.88
2023-09-08T05:34:40.898Z,4.65
2023-09-08T05:37:08.046Z,4.78
2023-09-08T05:39:34.693Z,5.47
2023-09-08T05:42:01.960Z,5.57
2023-09-08T05:44:28.499Z,5.95
2023-09-08T05:46:56.022Z,6.10
2023-09-08T05:49:24.161Z,5.38
2023-09-08T05:51:51.182Z,4.68
2023-09-08T05:54:18.256Z,4.95
2023-09-08T05:56:45.414Z,5.47
2023-09-08T05:59:12.807Z,4.60
2023-09-08T06:01:40.639Z,4.90
2023-09-08T06:04:10.975Z,4.40
2023-09-08T06:06:38.641Z,4.50
2023-09-08T06:09:07.360Z,4.63
2023-09-08T06:11:34.376Z,4.95
2023-09-08T06:14:01.259Z,4.68
2023-09-08T06:16:33.670Z,4.72
2023-09-08T06:19:01.592Z,4.90
2023-09-08T06:21:28.787Z,4.05
2023-09-08T06:23:56.093Z,4.30
2023-09-08T06:26:23.311Z,4.60
2023-09-08T06:28:50.158Z,4.22
2023-09-08T06:31:17.206Z,4.20
2023-09-08T06:33:44.708Z,4.75
2023-09-08T06:36:11.522Z,3.78
2023-09-08T06:38:38.465Z,4.30
2023-09-08T06:41:13.113Z,4.47
2023-09-08T06:43:40.927Z,3.92
2023-09-08T06:46:15.503Z,4.32
2023-09-08T06:48:42.497Z,3.97
2023-09-08T06:51:09.369Z,4.43
2023-09-08T06:53:38.205Z,4.00
2023-09-08T06:56:05.178Z,4.25
2023-09-08T06:58:33.450Z,4.28
2023-09-08T07:01:00.547Z,4.13
2023-09-08T07:03:28.361Z,3.78
2023-09-08T07:05:56.323Z,4.05
2023-09-08T07:08:24.193Z,4.10
2023-09-08T07:10:53.949Z,3.70
2023-09-08T07:13:21.325Z,4.00
2023-09-08T07:15:47.931Z,3.90
2023-09-08T07:18:14.840Z,3.72
2023-09-08T07:20:41.596Z,4.30
2023-09-08T07:23:08.812Z,4.53
2023-09-08T07:25:35.724Z,3.50
2023-09-08T07:28:03.098Z,3.88
2023-09-08T07:30:30.201Z,4.10
2023-09-08T07:32:59.054Z,3.97
2023-09-08T07:35:25.811Z,3.90
2023-09-08T07:37:52.854Z,4.30
2023-09-08T07:40:19.617Z,4.07
2023-09-08T07:42:46.912Z,4.10
2023-09-08T07:45:14.318Z,3.80
2023-09-08T07:47:41.471Z,3.95
2023-09-08T07:50:25.567Z,4.20
2023-09-08T07:52:55.050Z,4.03
2023-09-08T07:55:28.577Z,4.13
2023-09-08T07:57:56.758Z,4.05
2023-09-08T08:00:23.288Z,4.55
2023-09-08T08:02:55.400Z,4.38
2023-09-08T08:05:23.049Z,4.20
2023-09-08T08:07:49.865Z,4.18
2023-09-08T08:10:16.927Z,4.03
2023-09-08T08:12:44.133Z,3.58
2023-09-08T08:15:11.963Z,4.53
2023-09-08T08:17:39.359Z,3.88
2023-09-08T08:20:09.164Z,4.45
2023-09-08T08:22:37.919Z,3.85
2023-09-08T08:25:05.112Z,3.88
2023-09-08T08:27:32.416Z,3.90
2023-09-08T08:30:01.631Z,3.97
2023-09-08T08:32:29.158Z,4.68
2023-09-08T08:34:56.341Z,4.30
2023-09-08T08:37:23.402Z,4.18
2023-09-08T08:39:49.983Z,4.43
2023-09-08T08:42:17.276Z,5.90
2023-09-08T08:44:45.225Z,4.00
2023-09-08T08:47:14.818Z,4.60
2023-09-08T08:49:44.554Z,4.28
2023-09-08T08:52:12.385Z,4.07
2023-09-08T08:54:40.267Z,4.07
2023-09-08T08:57:07.965Z,4.05
2023-09-08T08:59:34.546Z,4.18
2023-09-08T09:02:03.870Z,4.82
2023-09-08T09:04:32.425Z,4.40
2023-09-08T09:06:59.293Z,4.38
2023-09-08T09:09:26.455Z,4.43
2023-09-08T09:11:53.257Z,4.15
2023-09-08T09:14:20.204Z,3.65
2023-09-08T09:16:48.800Z,3.85
2023-09-08T09:19:28.576Z,4.18
2023-09-08T09:21:56.895Z,4.20
2023-09-08T09:24:47.472Z,4.03
2023-09-08T09:27:14.813Z,4.38
2023-09-08T09:29:49.193Z,4.03
2023-09-08T09:32:17.336Z,4.45
2023-09-08T09:34:54.103Z,4.40
2023-09-08T09:37:21.640Z,3.97
2023-09-08T09:39:53.229Z,4.38
2023-09-08T09:42:22.109Z,4.15
2023-09-08T09:44:50.203Z,3.60
2023-09-08T09:47:17.633Z,3.90
2023-09-08T09:49:45.928Z,4.20
2023-09-08T09:52:42.755Z,3.92
2023-09-08T09:55:10.105Z,3.70
2023-09-08T09:57:38.208Z,4.07
2023-09-08T10:00:07.145Z,3.72
2023-09-08T10:02:34.240Z,4.30
2023-09-08T10:05:12.137Z,4.03
2023-09-08T10:07:40.211Z,3.75
2023-09-08T10:10:07.267Z,3.72
2023-09-08T10:13:49.983Z,4.45
2023-09-08T10:16:19.895Z,3.85
2023-09-08T10:18:48.396Z,4.35
2023-09-08T10:21:17.458Z,3.40
2023-09-08T10:23:58.324Z,3.80
2023-09-08T10:26:28.380Z,3.72
2023-09-08T10:28:58.774Z,4.05
2023-09-08T10:31:30.698Z,3.42
2023-09-08T10:33:58.475Z,4.18
2023-09-08T10:36:25.915Z,3.67
2023-09-08T10:38:55.732Z,4.03
2023-09-08T10:41:25.134Z,3.38
2023-09-08T10:44:04.196Z,3.78
2023-09-08T10:46:32.909Z,3.63
2023-09-08T10:49:05.365Z,3.72
2023-09-08T10:51:32.640Z,3.10
2023-09-08T10:53:59.332Z,4.03
2023-09-08T10:56:52.175Z,3.60
2023-09-08T10:59:19.299Z,3.63
2023-09-08T11:01:48.449Z,3.90
2023-09-08T11:04:20.286Z,3.70
2023-09-08T11:06:47.664Z,3.53
2023-09-08T11:09:15.338Z,3.50
2023-09-08T11:11:42.834Z,3.65
2023-09-08T11:14:09.643Z,3.97
2023-09-08T11:16:36.760Z,3.53
2023-09-08T11:19:05.742Z,3.40
2023-09-08T11:21:36.315Z,3.80
2023-09-08T11:24:05.780Z,4.18
2023-09-08T11:26:35.853Z,3.58
2023-09-08T11:29:03.879Z,3.58
2023-09-08T11:31:30.497Z,4.10
2023-09-08T11:33:58.554Z,3.97
2023-09-08T11:36:25.101Z,3.60
2023-09-08T11:38:53.437Z,3.78
2023-09-08T11:41:24.591Z,3.33
2023-09-08T11:43:52.256Z,3.92
2023-09-08T11:46:19.184Z,3.67
2023-09-08T11:48:47.302Z,4.03
2023-09-08T11:51:14.092Z,3.90
2023-09-08T11:53:42.191Z,3.63
2023-09-08T11:56:09.469Z,3.83
2023-09-08T11:58:37.146Z,3.67
2023-09-08T12:01:05.770Z,3.67
2023-09-08T12:03:33.014Z,3.60
2023-09-08T12:06:01.080Z,3.58
2023-09-08T12:08:28.382Z,4.28
2023-09-08T12:10:55.242Z,3.17
2023-09-08T12:13:23.763Z,3.80
2023-09-08T12:15:50.400Z,3.72
2023-09-08T12:18:17.590Z,3.47
2023-09-08T12:20:44.997Z,3.70
2023-09-08T12:23:19.965Z,3.35
2023-09-08T12:25:48.670Z,3.50
2023-09-08T12:28:17.968Z,3.17
2023-09-08T12:30:45.385Z,3.85
2023-09-08T12:33:14.198Z,3.95
2023-09-08T12:35:45.591Z,3.65
2023-09-08T12:38:16.372Z,3.80
2023-09-08T12:40:43.555Z,3.55
2023-09-08T12:43:21.094Z,3.17
2023-09-08T12:45:57.541Z,3.63
2023-09-08T12:48:25.161Z,3.75
2023-09-08T12:50:52.248Z,3.30
2023-09-08T12:53:24.346Z,3.45
2023-09-08T12:55:51.585Z,3.67
2023-09-08T12:58:18.425Z,3.78
2023-09-08T13:00:45.655Z,3.65
2023-09-08T13:03:12.401Z,3.97
2023-09-08T13:05:39.961Z,3.72
2023-09-08T13:08:07.350Z,3.53
2023-09-08T13:10:34.624Z,3.50
2023-09-08T13:13:01.560Z,4.03
2023-09-08T13:15:28.791Z,3.75
2023-09-08T13:17:56.118Z,3.50
2023-09-08T13:20:23.191Z,3.08
2023-09-08T13:22:49.794Z,3.50
2023-09-08T13:25:16.868Z,4.03
2023-09-08T13:27:43.732Z,3.55
2023-09-08T13:30:11.360Z,3.53
2023-09-08T13:32:38.251Z,3.70
2023-09-08T13:35:06.132Z,3.47
2023-09-08T13:37:35.191Z,3.47
2023-09-08T13:40:04.275Z,4.13
2023-09-08T13:42:32.323Z,3.80
2023-09-08T13:44:59.255Z,3.55
2023-09-08T13:47:26.386Z,3.30
2023-09-08T13:49:55.421Z,3.00
2023-09-08T13:52:26.939Z,3.58
2023-09-08T13:55:18.769Z,3.70
2023-09-08T13:57:42.583Z,3.25
2023-09-08T14:00:15.713Z,4.00
2023-09-08T14:02:50.748Z,3.25
2023-09-08T14:05:20.741Z,3.22
2023-09-08T14:07:57.772Z,3.85
2023-09-08T14:13:05.226Z,3.70
2023-09-08T14:15:32.082Z,3.63
2023-09-08T14:17:59.181Z,3.65
2023-09-08T14:20:25.809Z,3.75
2023-09-08T14:22:53.549Z,3.85
2023-09-08T14:25:20.277Z,4.03
2023-09-08T14:27:47.152Z,3.90
2023-09-08T14:30:13.922Z,3.50
2023-09-08T14:32:40.809Z,3.53
2023-09-08T14:35:07.857Z,3.72
2023-09-08T14:37:35.151Z,3.40
2023-09-08T14:40:02.171Z,3.33
2023-09-08T14:42:29.132Z,3.60
2023-09-08T14:44:55.701Z,4.05
2023-09-08T14:47:23.013Z,4.10
2023-09-08T14:49:49.694Z,3.63
2023-09-08T14:52:17.690Z,3.20
2023-09-08T14:54:44.229Z,3.17
2023-09-08T14:57:11.615Z,3.67
2023-09-08T14:59:38.145Z,3.90
2023-09-08T15:02:05.370Z,3.67
2023-09-08T15:04:31.896Z,3.60
2023-09-08T15:06:59.348Z,3.35
2023-09-08T15:09:26.110Z,3.70
2023-09-08T15:11:53.363Z,3.20
2023-09-08T15:14:19.860Z,3.42
2023-09-08T15:16:47.121Z,3.85
2023-09-08T15:19:13.752Z,3.45
2023-09-08T15:21:41.186Z,3.72
2023-09-08T15:24:08.124Z,3.58
2023-09-08T15:26:35.164Z,3.90
2023-09-08T15:29:01.804Z,3.67
2023-09-08T15:31:29.047Z,3.92
2023-09-08T15:33:55.970Z,3.42
2023-09-08T15:36:23.366Z,3.65
2023-09-08T15:38:51.020Z,3.58
2023-09-08T15:41:18.789Z,3.38
2023-09-08T15:43:48.896Z,3.88
2023-09-08T15:46:15.927Z,3.33
2023-09-08T15:48:42.763Z,3.95
2023-09-08T15:51:10.675Z,3.65
2023-09-08T15:53:40.968Z,3.90
2023-09-08T15:56:09.279Z,3.75
2023-09-08T15:58:36.889Z,3.75
2023-09-08T16:01:06.492Z,4.10
2023-09-08T16:03:34.145Z,3.63
2023-09-08T16:06:01.484Z,3.53
2023-09-08T16:08:28.317Z,3.47
2023-09-08T16:10:55.111Z,3.72
2023-09-08T16:13:21.877Z,3.67
2023-09-08T16:15:48.932Z,3.40
2023-09-08T16:18:15.466Z,4.15
2023-09-08T16:20:42.805Z,3.45
2023-09-08T16:23:10.323Z,3.55
2023-09-08T16:25:37.752Z,3.85
2023-09-08T16:28:04.673Z,4.03
2023-09-08T16:30:31.804Z,3.67
2023-09-08T16:32:58.452Z,4.00
2023-09-08T16:35:26.657Z,3.45
2023-09-08T16:37:53.336Z,3.95
2023-09-08T16:40:20.360Z,4.50
2023-09-08T16:42:47.033Z,3.72
2023-09-08T16:45:15.667Z,4.28
2023-09-08T16:47:42.437Z,3.92
2023-09-08T16:50:10.097Z,3.97
2023-09-08T16:52:36.686Z,4.10
2023-09-08T16:55:04.013Z,4.60
2023-09-08T16:57:30.548Z,4.00
2023-09-08T16:59:57.547Z,4.18
2023-09-08T17:02:27.804Z,4.10
2023-09-08T17:04:54.943Z,3.60
2023-09-08T17:07:21.736Z,3.95
2023-09-08T17:09:48.615Z,4.03
2023-09-08T17:12:15.232Z,4.22
2023-09-08T17:14:42.268Z,4.22
2023-09-08T17:17:09.382Z,5.13
2023-09-08T17:19:36.413Z,7.63
2023-09-08T17:22:03.294Z,5.32
2023-09-08T17:24:30.238Z,4.45
2023-09-08T17:26:57.916Z,4.03
2023-09-08T17:29:24.780Z,5.38
2023-09-08T17:31:51.749Z,4.63
2023-09-08T17:34:20.766Z,4.18
2023-09-08T17:36:56.617Z,4.72
2023-09-08T17:39:24.671Z,4.60
2023-09-08T17:41:51.390Z,3.97
2023-09-08T17:44:19.396Z,4.18
2023-09-08T17:46:46.298Z,4.72
2023-09-08T17:49:13.484Z,4.78
2023-09-08T17:51:40.054Z,4.47
2023-09-08T17:54:07.222Z,4.53
2023-09-08T17:56:35.127Z,4.20
2023-09-08T17:59:02.417Z,4.22
2023-09-08T18:01:29.077Z,4.28
2023-09-08T18:03:56.076Z,4.68
2023-09-08T18:06:22.811Z,5.35
2023-09-08T18:08:52.679Z,5.30
2023-09-08T18:11:21.682Z,4.65
2023-09-08T18:13:49.344Z,4.22
2023-09-08T18:16:16.753Z,4.90
2023-09-08T18:18:46.774Z,4.28
2023-09-08T18:21:14.558Z,4.72
2023-09-08T18:23:41.981Z,5.07
2023-09-08T18:26:09.038Z,4.55
2023-09-08T18:28:36.264Z,4.18
2023-09-08T18:31:03.346Z,4.28
2023-09-08T18:33:30.485Z,4.50
2023-09-08T18:35:57.318Z,4.25
2023-09-08T18:38:24.554Z,4.13
2023-09-08T18:40:51.670Z,5.50
2023-09-08T18:43:19.122Z,5.22
2023-09-08T18:45:46.265Z,5.40
2023-09-08T18:48:13.410Z,7.10
2023-09-08T18:50:40.903Z,6.05
2023-09-08T18:53:07.718Z,5.93
2023-09-08T18:55:34.853Z,5.97
2023-09-08T18:58:01.847Z,5.72
2023-09-08T19:00:28.501Z,5.10
2023-09-08T19:02:55.527Z,5.63
2023-09-08T19:05:22.653Z,5.43
2023-09-08T19:07:49.616Z,6.82
2023-09-08T19:10:16.576Z,6.78
2023-09-08T19:12:43.309Z,6.50
2023-09-08T19:15:10.529Z,7.85
2023-09-08T19:17:37.426Z,7.43
2023-09-08T19:20:04.797Z,7.75
2023-09-08T19:22:31.993Z,6.93
2023-09-08T19:24:58.989Z,7.85
2023-09-08T19:27:25.924Z,6.85
2023-09-08T19:29:53.251Z,7.78
2023-09-08T19:32:19.986Z,10.02
2023-09-08T19:34:46.751Z,10.23
2023-09-08T19:37:14.996Z,8.18
2023-09-08T19:39:41.969Z,7.65
2023-09-08T19:42:08.952Z,10.90
2023-09-08T19:44:35.721Z,9.15
2023-09-08T19:47:02.658Z,9.15
2023-09-08T19:49:29.650Z,9.65
2023-09-08T19:51:56.477Z,9.65
2023-09-08T19:54:23.121Z,11.38
2023-09-08T19:56:49.991Z,9.98
2023-09-08T19:59:19.316Z,10.85
2023-09-08T20:01:47.566Z,10.75
2023-09-08T20:04:14.920Z,8.85
2023-09-08T20:06:46.526Z,10.70
2023-09-08T20:09:14.503Z,11.38
2023-09-08T20:11:42.161Z,11.80
2023-09-08T20:14:10.155Z,13.07
2023-09-08T20:16:37.208Z,13.73
2023-09-08T20:19:04.731Z,14.20
2023-09-08T20:21:31.968Z,12.98
2023-09-08T20:23:59.062Z,12.73
2023-09-08T20:26:25.706Z,12.20
2023-09-08T20:28:52.745Z,11.57
2023-09-08T20:31:20.735Z,10.60
2023-09-08T20:33:47.887Z,10.80
2023-09-08T20:36:15.268Z,11.18
2023-09-08T20:38:43.217Z,9.90
2023-09-08T20:41:14.112Z,9.50
2023-09-08T20:43:41.758Z,9.25
2023-09-08T20:46:08.622Z,10.52
2023-09-08T20:48:38.335Z,11.30
2023-09-08T20:51:12.546Z,10.90
2023-09-08T20:53:41.487Z,10.33
2023-09-08T20:56:10.223Z,12.00
2023-09-08T20:58:39.046Z,11.55
2023-09-08T21:01:05.982Z,11.40
2023-09-08T21:03:33.534Z,11.75
2023-09-08T21:06:00.524Z,12.40
2023-09-08T21:08:27.849Z,11.45
2023-09-08T21:10:58.352Z,11.43
2023-09-08T21:13:25.550Z,10.27
2023-09-08T21:15:53.032Z,11.07
2023-09-08T21:18:20.146Z,10.48
2023-09-08T21:20:48.534Z,9.88
2023-09-08T21:23:16.609Z,10.15
2023-09-08T21:25:43.263Z,9.82
2023-09-08T21:28:10.577Z,9.75
2023-09-08T21:30:37.112Z,8.68
2023-09-08T21:33:05.805Z,9.18
2023-09-08T21:35:32.619Z,8.70
2023-09-08T21:37:59.691Z,9.75
2023-09-08T21:40:26.656Z,8.77
2023-09-08T21:42:54.082Z,8.70
2023-09-08T21:45:20.664Z,7.90
2023-09-08T21:47:48.086Z,8.30
2023-09-08T21:50:15.895Z,9.65
2023-09-08T21:52:43.112Z,7.95
2023-09-08T21:55:10.702Z,8.20
2023-09-08T21:57:37.984Z,7.97
2023-09-08T22:00:06.804Z,7.93
2023-09-08T22:02:37.675Z,8.00
2023-09-08T22:05:05.070Z,7.65
2023-09-08T22:07:31.888Z,7.25
2023-09-08T22:09:58.843Z,7.35
2023-09-08T22:12:25.728Z,7.05
2023-09-08T22:14:52.549Z,7.35
2023-09-08T22:17:19.319Z,7.43
2023-09-08T22:19:46.123Z,7.63
2023-09-08T22:22:13.135Z,6.90
2023-09-08T22:24:39.833Z,7.50
2023-09-08T22:27:07.387Z,7.03
2023-09-08T22:29:34.325Z,6.63
2023-09-08T22:32:01.030Z,6.80
2023-09-08T22:34:28.174Z,6.82
2023-09-08T22:36:55.167Z,7.18
2023-09-08T22:39:21.965Z,7.80
2023-09-08T22:41:48.966Z,7.18
2023-09-08T22:44:16.720Z,7.47
2023-09-08T22:46:43.616Z,8.90
2023-09-08T22:49:11.912Z,7.20
2023-09-08T22:51:38.628Z,7.90
2023-09-08T22:54:05.432Z,7.47
2023-09-08T22:56:33.353Z,7.30
2023-09-08T22:59:00.219Z,8.32
2023-09-08T23:01:27.239Z,7.70
2023-09-08T23:03:54.166Z,7.97
2023-09-08T23:06:21.085Z,8.73
2023-09-08T23:08:47.978Z,8.52
2023-09-08T23:11:14.735Z,7.80
2023-09-08T23:13:41.597Z,7.80
2023-09-08T23:16:14.374Z,8.38
2023-09-08T23:18:41.626Z,8.73
2023-09-08T23:21:08.460Z,8.00
2023-09-08T23:23:36.202Z,7.90
2023-09-08T23:26:06.049Z,8.00
2023-09-08T23:28:33.423Z,7.38
2023-09-08T23:30:59.935Z,6.63
2023-09-08T23:33:27.061Z,6.90
2023-09-08T23:35:53.731Z,6.43
2023-09-08T23:38:20.799Z,6.78
2023-09-08T23:40:47.569Z,6.63
2023-09-08T23:43:14.676Z,6.32
2023-09-08T23:45:45.964Z,6.10
2023-09-08T23:48:13.268Z,6.85
2023-09-08T23:50:59.536Z,7.03
2023-09-08T23:53:28.095Z,6.97
2023-09-08T23:55:55.614Z,6.32
2023-09-08T23:58:22.755Z,7.18
